sensor_id;sensor_type;location;lat;lon;timestamp;P1;durP1;ratioP1;P2;durP2;ratioP2
7587;SDS011;3835;48.850;8.938;2023-04-25T00:01:17;1999.90;;;999.90;;
7587;SDS011;3835;48.850;8.938;2023-04-25T00:03:44;1999.90;;;999.90;;
7587;SDS011;3835;48.850;8.938;2023-04-25T00:06:13;1999.90;;;999.90;;
7587;SDS011;3835;48.850;8.938;2023-04-25T00:08:40;1999.90;;;999.90;;
7587;SDS011;3835;48.850;8.938;2023-04-25T00:11:06;1999.90;;;999.90;;
7587;SDS011;3835;48.850;8.938;2023-04-25T00:13:33;1999.90;;;999.90;;
7587;SDS011;3835;48.850;8.938;2023-04-25T00:16:00;1999.90;;;999.90;;
7587;SDS011;3835;48.850;8.938;2023-04-25T00:18:27;1999.90;;;999.90;;
7587;SDS011;3835;48.850;8.938;2023-04-25T00:20:54;1999.90;;;999.90;;
7587;SDS011;3835;48.850;8.938;2023-04-25T00:23:23;1999.90;;;999.90;;
7587;SDS011;3835;48.850;8.938;2023-04-25T00:25:50;1999.90;;;999.90;;
7587;SDS011;3835;48.850;8.938;2023-04-25T00:28:17;1999.90;;;999.90;;
7587;SDS011;3835;48.850;8.938;2023-04-25T00:30:43;1999.90;;;999.90;;
7587;SDS011;3835;48.850;8.938;2023-04-25T00:33:10;1999.90;;;999.90;;
7587;SDS011;3835;48.850;8.938;2023-04-25T00:35:37;1999.90;;;999.90;;
7587;SDS011;3835;48.850;8.938;2023-04-25T00:38:04;1999.90;;;999.90;;
7587;SDS011;3835;48.850;8.938;2023-04-25T00:40:32;1999.90;;;999.90;;
7587;SDS011;3835;48.850;8.938;2023-04-25T00:42:59;1999.90;;;999.90;;
7587;SDS011;3835;48.850;8.938;2023-04-25T00:45:27;1999.90;;;999.90;;
7587;SDS011;3835;48.850;8.938;2023-04-25T00:47:55;1999.90;;;999.90;;
7587;SDS011;3835;48.850;8.938;2023-04-25T00:50:22;1999.90;;;999.90;;
7587;SDS011;3835;48.850;8.938;2023-04-25T00:52:49;1999.90;;;999.90;;
7587;SDS011;3835;48.850;8.938;2023-04-25T00:55:16;1999.90;;;999.90;;
7587;SDS011;3835;48.850;8.938;2023-04-25T00:57:44;1999.90;;;999.90;;
7587;SDS011;3835;48.850;8.938;2023-04-25T01:00:12;1999.90;;;999.90;;
7587;SDS011;3835;48.850;8.938;2023-04-25T01:02:39;1999.90;;;999.90;;
7587;SDS011;3835;48.850;8.938;2023-04-25T01:05:07;1999.90;;;999.90;;
7587;SDS011;3835;48.850;8.938;2023-04-25T01:07:34;1999.90;;;999.90;;
7587;SDS011;3835;48.850;8.938;2023-04-25T01:10:01;1999.90;;;999.90;;
7587;SDS011;3835;48.850;8.938;2023-04-25T01:12:29;1999.90;;;999.90;;
7587;SDS011;3835;48.850;8.938;2023-04-25T01:14:57;1999.90;;;999.90;;
7587;SDS011;3835;48.850;8.938;2023-04-25T01:17:24;1999.90;;;999.90;;
7587;SDS011;3835;48.850;8.938;2023-04-25T01:19:52;1999.90;;;999.90;;
7587;SDS011;3835;48.850;8.938;2023-04-25T01:22:20;1999.90;;;999.90;;
7587;SDS011;3835;48.850;8.938;2023-04-25T01:24:47;1999.90;;;999.90;;
7587;SDS011;3835;48.850;8.938;2023-04-25T01:27:15;1999.90;;;999.90;;
7587;SDS011;3835;48.850;8.938;2023-04-25T01:29:42;1999.90;;;999.90;;
7587;SDS011;3835;48.850;8.938;2023-04-25T01:32:09;1999.90;;;999.90;;
7587;SDS011;3835;48.850;8.938;2023-04-25T01:34:36;1999.90;;;999.90;;
7587;SDS011;3835;48.850;8.938;2023-04-25T01:37:03;1999.90;;;999.90;;
7587;SDS011;3835;48.850;8.938;2023-04-25T01:39:31;1999.90;;;999.90;;
7587;SDS011;3835;48.850;8.938;2023-04-25T01:41:58;1999.90;;;999.90;;
7587;SDS011;3835;48.850;8.938;2023-04-25T01:44:25;1999.90;;;999.90;;
7587;SDS011;3835;48.850;8.938;2023-04-25T01:46:52;1999.90;;;999.90;;
7587;SDS011;3835;48.850;8.938;2023-04-25T01:49:19;1999.90;;;999.90;;
7587;SDS011;3835;48.850;8.938;2023-04-25T01:51:46;1999.90;;;999.90;;
7587;SDS011;3835;48.850;8.938;2023-04-25T01:54:13;1999.90;;;999.90;;
7587;SDS011;3835;48.850;8.938;2023-04-25T01:56:41;1999.90;;;999.90;;
7587;SDS011;3835;48.850;8.938;2023-04-25T01:59:08;1999.90;;;999.90;;
7587;SDS011;3835;48.850;8.938;2023-04-25T02:01:34;1999.90;;;999.90;;
7587;SDS011;3835;48.850;8.938;2023-04-25T02:04:01;1999.90;;;999.90;;
7587;SDS011;3835;48.850;8.938;2023-04-25T02:06:28;1999.90;;;999.90;;
7587;SDS011;3835;48.850;8.938;2023-04-25T02:08:55;1999.90;;;999.90;;
7587;SDS011;3835;48.850;8.938;2023-04-25T02:11:22;1999.90;;;999.90;;
7587;SDS011;3835;48.850;8.938;2023-04-25T02:13:50;1999.90;;;999.90;;
7587;SDS011;3835;48.850;8.938;2023-04-25T02:16:17;1999.90;;;999.90;;
7587;SDS011;3835;48.850;8.938;2023-04-25T02:18:44;1999.90;;;999.90;;
7587;SDS011;3835;48.850;8.938;2023-04-25T02:21:11;1999.90;;;999.90;;
7587;SDS011;3835;48.850;8.938;2023-04-25T02:23:37;1999.90;;;999.90;;
7587;SDS011;3835;48.850;8.938;2023-04-25T02:26:04;1999.90;;;999.90;;
7587;SDS011;3835;48.850;8.938;2023-04-25T02:28:31;1999.90;;;999.90;;
7587;SDS011;3835;48.850;8.938;2023-04-25T02:30:59;1999.90;;;999.90;;
7587;SDS011;3835;48.850;8.938;2023-04-25T02:33:26;1999.90;;;999.90;;
7587;SDS011;3835;48.850;8.938;2023-04-25T02:35:52;1999.90;;;999.90;;
7587;SDS011;3835;48.850;8.938;2023-04-25T02:38:19;1999.90;;;999.90;;
7587;SDS011;3835;48.850;8.938;2023-04-25T02:40:46;1999.90;;;999.90;;
7587;SDS011;3835;48.850;8.938;2023-04-25T02:43:13;13.17;;;12.57;;
7587;SDS011;3835;48.850;8.938;2023-04-25T02:45:41;13.00;;;12.30;;
7587;SDS011;3835;48.850;8.938;2023-04-25T02:48:09;12.33;;;11.73;;
7587;SDS011;3835;48.850;8.938;2023-04-25T02:50:35;12.37;;;11.73;;
7587;SDS011;3835;48.850;8.938;2023-04-25T02:53:02;14.03;;;13.23;;
7587;SDS011;3835;48.850;8.938;2023-04-25T02:55:29;14.27;;;13.57;;
7587;SDS011;3835;48.850;8.938;2023-04-25T02:57:56;13.47;;;12.77;;
7587;SDS011;3835;48.850;8.938;2023-04-25T03:00:22;14.33;;;13.53;;
7587;SDS011;3835;48.850;8.938;2023-04-25T03:02:50;13.37;;;12.47;;
7587;SDS011;3835;48.850;8.938;2023-04-25T03:05:18;13.03;;;12.33;;
7587;SDS011;3835;48.850;8.938;2023-04-25T03:07:45;13.33;;;12.63;;
7587;SDS011;3835;48.850;8.938;2023-04-25T03:10:12;13.57;;;12.87;;
7587;SDS011;3835;48.850;8.938;2023-04-25T03:12:39;12.97;;;12.10;;
7587;SDS011;3835;48.850;8.938;2023-04-25T03:15:06;12.43;;;11.73;;
7587;SDS011;3835;48.850;8.938;2023-04-25T03:17:33;13.17;;;12.27;;
7587;SDS011;3835;48.850;8.938;2023-04-25T03:20:00;14.07;;;12.83;;
7587;SDS011;3835;48.850;8.938;2023-04-25T03:22:30;15.10;;;14.20;;
7587;SDS011;3835;48.850;8.938;2023-04-25T03:24:57;13.97;;;13.17;;
7587;SDS011;3835;48.850;8.938;2023-04-25T03:27:23;13.33;;;12.43;;
7587;SDS011;3835;48.850;8.938;2023-04-25T03:29:50;14.57;;;13.73;;
7587;SDS011;3835;48.850;8.938;2023-04-25T03:32:17;13.70;;;12.90;;
7587;SDS011;3835;48.850;8.938;2023-04-25T03:34:44;14.53;;;13.63;;
7587;SDS011;3835;48.850;8.938;2023-04-25T03:37:10;14.53;;;13.67;;
7587;SDS011;3835;48.850;8.938;2023-04-25T03:39:38;15.07;;;14.17;;
7587;SDS011;3835;48.850;8.938;2023-04-25T03:42:05;15.57;;;14.47;;
7587;SDS011;3835;48.850;8.938;2023-04-25T03:44:32;15.03;;;14.23;;
7587;SDS011;3835;48.850;8.938;2023-04-25T03:46:59;14.60;;;13.70;;
7587;SDS011;3835;48.850;8.938;2023-04-25T03:49:25;15.50;;;14.40;;
7587;SDS011;3835;48.850;8.938;2023-04-25T03:51:52;14.63;;;13.73;;
7587;SDS011;3835;48.850;8.938;2023-04-25T03:54:19;29.20;;;27.27;;
7587;SDS011;3835;48.850;8.938;2023-04-25T03:56:47;15.03;;;14.07;;
7587;SDS011;3835;48.850;8.938;2023-04-25T03:59:14;14.77;;;13.77;;
7587;SDS011;3835;48.850;8.938;2023-04-25T04:01:41;15.10;;;14.20;;
7587;SDS011;3835;48.850;8.938;2023-04-25T04:04:08;15.73;;;14.73;;
7587;SDS011;3835;48.850;8.938;2023-04-25T04:06:34;15.77;;;14.87;;
7587;SDS011;3835;48.850;8.938;2023-04-25T04:09:01;16.27;;;15.27;;
7587;SDS011;3835;48.850;8.938;2023-04-25T04:11:28;16.90;;;15.83;;
7587;SDS011;3835;48.850;8.938;2023-04-25T04:13:57;16.73;;;15.73;;
7587;SDS011;3835;48.850;8.938;2023-04-25T04:16:24;16.17;;;15.10;;
7587;SDS011;3835;48.850;8.938;2023-04-25T04:18:51;16.53;;;15.37;;
7587;SDS011;3835;48.850;8.938;2023-04-25T04:21:18;17.57;;;16.47;;
7587;SDS011;3835;48.850;8.938;2023-04-25T04:23:44;16.47;;;15.40;;
7587;SDS011;3835;48.850;8.938;2023-04-25T04:26:13;17.40;;;16.20;;
7587;SDS011;3835;48.850;8.938;2023-04-25T04:28:41;17.27;;;15.97;;
7587;SDS011;3835;48.850;8.938;2023-04-25T04:31:10;17.07;;;15.97;;
7587;SDS011;3835;48.850;8.938;2023-04-25T04:33:37;17.63;;;16.57;;
7587;SDS011;3835;48.850;8.938;2023-04-25T04:36:04;14.53;;;13.63;;
7587;SDS011;3835;48.850;8.938;2023-04-25T04:38:32;15.77;;;14.73;;
7587;SDS011;3835;48.850;8.938;2023-04-25T04:40:59;16.77;;;15.70;;
7587;SDS011;3835;48.850;8.938;2023-04-25T04:43:27;16.13;;;14.90;;
7587;SDS011;3835;48.850;8.938;2023-04-25T04:45:54;17.03;;;15.73;;
7587;SDS011;3835;48.850;8.938;2023-04-25T04:48:23;16.60;;;15.30;;
7587;SDS011;3835;48.850;8.938;2023-04-25T04:50:50;15.93;;;14.80;;
7587;SDS011;3835;48.850;8.938;2023-04-25T04:53:17;15.73;;;14.60;;
7587;SDS011;3835;48.850;8.938;2023-04-25T04:55:43;15.87;;;14.87;;
7587;SDS011;3835;48.850;8.938;2023-04-25T04:58:11;16.10;;;15.10;;
7587;SDS011;3835;48.850;8.938;2023-04-25T05:00:37;16.77;;;15.77;;
7587;SDS011;3835;48.850;8.938;2023-04-25T05:03:05;14.83;;;13.93;;
7587;SDS011;3835;48.850;8.938;2023-04-25T05:05:33;16.07;;;14.97;;
7587;SDS011;3835;48.850;8.938;2023-04-25T05:08:00;16.20;;;15.30;;
7587;SDS011;3835;48.850;8.938;2023-04-25T05:10:26;16.50;;;15.40;;
7587;SDS011;3835;48.850;8.938;2023-04-25T05:12:53;14.93;;;13.57;;
7587;SDS011;3835;48.850;8.938;2023-04-25T05:15:20;14.50;;;13.60;;
7587;SDS011;3835;48.850;8.938;2023-04-25T05:17:47;14.97;;;13.97;;
7587;SDS011;3835;48.850;8.938;2023-04-25T05:20:13;14.93;;;13.93;;
7587;SDS011;3835;48.850;8.938;2023-04-25T05:22:42;15.03;;;14.10;;
7587;SDS011;3835;48.850;8.938;2023-04-25T05:25:08;14.73;;;13.63;;
7587;SDS011;3835;48.850;8.938;2023-04-25T05:27:35;14.50;;;13.67;;
7587;SDS011;3835;48.850;8.938;2023-04-25T05:30:02;14.70;;;13.80;;
7587;SDS011;3835;48.850;8.938;2023-04-25T05:32:31;15.43;;;14.43;;
7587;SDS011;3835;48.850;8.938;2023-04-25T05:34:57;14.97;;;14.03;;
7587;SDS011;3835;48.850;8.938;2023-04-25T05:37:24;14.13;;;13.03;;
7587;SDS011;3835;48.850;8.938;2023-04-25T05:39:52;13.60;;;12.80;;
7587;SDS011;3835;48.850;8.938;2023-04-25T05:42:19;16.53;;;15.53;;
7587;SDS011;3835;48.850;8.938;2023-04-25T05:44:46;14.23;;;13.33;;
7587;SDS011;3835;48.850;8.938;2023-04-25T05:47:13;14.60;;;13.60;;
7587;SDS011;3835;48.850;8.938;2023-04-25T05:49:40;13.47;;;12.67;;
7587;SDS011;3835;48.850;8.938;2023-04-25T05:52:06;13.73;;;12.87;;
7587;SDS011;3835;48.850;8.938;2023-04-25T05:54:33;14.17;;;13.13;;
7587;SDS011;3835;48.850;8.938;2023-04-25T05:57:01;14.13;;;13.30;;
7587;SDS011;3835;48.850;8.938;2023-04-25T05:59:28;14.63;;;13.53;;
7587;SDS011;3835;48.850;8.938;2023-04-25T06:01:55;15.33;;;14.27;;
7587;SDS011;3835;48.850;8.938;2023-04-25T06:04:22;15.33;;;14.30;;
7587;SDS011;3835;48.850;8.938;2023-04-25T06:06:48;14.03;;;13.13;;
7587;SDS011;3835;48.850;8.938;2023-04-25T06:09:15;15.17;;;14.17;;
7587;SDS011;3835;48.850;8.938;2023-04-25T06:11:42;13.47;;;12.57;;
7587;SDS011;3835;48.850;8.938;2023-04-25T06:14:10;15.07;;;13.87;;
7587;SDS011;3835;48.850;8.938;2023-04-25T06:16:37;15.50;;;14.60;;
7587;SDS011;3835;48.850;8.938;2023-04-25T06:19:03;14.97;;;13.97;;
7587;SDS011;3835;48.850;8.938;2023-04-25T06:21:30;15.60;;;14.60;;
7587;SDS011;3835;48.850;8.938;2023-04-25T06:23:57;16.03;;;15.03;;
7587;SDS011;3835;48.850;8.938;2023-04-25T06:26:24;14.60;;;13.70;;
7587;SDS011;3835;48.850;8.938;2023-04-25T06:28:51;16.33;;;15.33;;
7587;SDS011;3835;48.850;8.938;2023-04-25T06:31:19;15.73;;;14.73;;
7587;SDS011;3835;48.850;8.938;2023-04-25T06:33:45;15.63;;;14.63;;
7587;SDS011;3835;48.850;8.938;2023-04-25T06:36:13;16.83;;;15.83;;
7587;SDS011;3835;48.850;8.938;2023-04-25T06:38:40;16.47;;;15.30;;
7587;SDS011;3835;48.850;8.938;2023-04-25T06:41:06;14.27;;;13.33;;
7587;SDS011;3835;48.850;8.938;2023-04-25T06:43:33;14.87;;;13.87;;
7587;SDS011;3835;48.850;8.938;2023-04-25T06:46:00;13.80;;;13.00;;
7587;SDS011;3835;48.850;8.938;2023-04-25T06:48:28;12.93;;;12.13;;
7587;SDS011;3835;48.850;8.938;2023-04-25T06:50:55;14.67;;;13.70;;
7587;SDS011;3835;48.850;8.938;2023-04-25T06:53:22;13.93;;;13.13;;
7587;SDS011;3835;48.850;8.938;2023-04-25T06:55:49;14.73;;;13.83;;
7587;SDS011;3835;48.850;8.938;2023-04-25T06:58:16;16.10;;;15.20;;
7587;SDS011;3835;48.850;8.938;2023-04-25T07:00:42;16.27;;;15.37;;
7587;SDS011;3835;48.850;8.938;2023-04-25T07:03:09;13.60;;;12.80;;
7587;SDS011;3835;48.850;8.938;2023-04-25T07:05:38;15.30;;;14.30;;
7587;SDS011;3835;48.850;8.938;2023-04-25T07:08:05;14.73;;;13.80;;
7587;SDS011;3835;48.850;8.938;2023-04-25T07:10:31;13.47;;;12.77;;
7587;SDS011;3835;48.850;8.938;2023-04-25T07:12:58;13.87;;;13.07;;
7587;SDS011;3835;48.850;8.938;2023-04-25T07:15:25;13.60;;;12.77;;
7587;SDS011;3835;48.850;8.938;2023-04-25T07:17:52;13.57;;;12.67;;
7587;SDS011;3835;48.850;8.938;2023-04-25T07:20:18;13.37;;;12.60;;
7587;SDS011;3835;48.850;8.938;2023-04-25T07:22:47;15.53;;;14.57;;
7587;SDS011;3835;48.850;8.938;2023-04-25T07:25:15;14.07;;;13.20;;
7587;SDS011;3835;48.850;8.938;2023-04-25T07:27:42;13.47;;;12.57;;
7587;SDS011;3835;48.850;8.938;2023-04-25T07:30:09;14.17;;;13.37;;
7587;SDS011;3835;48.850;8.938;2023-04-25T07:32:37;14.53;;;13.73;;
7587;SDS011;3835;48.850;8.938;2023-04-25T07:35:04;13.83;;;12.83;;
7587;SDS011;3835;48.850;8.938;2023-04-25T07:37:32;15.30;;;14.37;;
7587;SDS011;3835;48.850;8.938;2023-04-25T07:40:00;15.07;;;14.03;;
7587;SDS011;3835;48.850;8.938;2023-04-25T07:42:29;14.60;;;13.67;;
7587;SDS011;3835;48.850;8.938;2023-04-25T07:44:55;12.47;;;11.77;;
7587;SDS011;3835;48.850;8.938;2023-04-25T07:47:22;13.57;;;12.67;;
7587;SDS011;3835;48.850;8.938;2023-04-25T07:49:49;13.53;;;12.83;;
7587;SDS011;3835;48.850;8.938;2023-04-25T07:52:16;14.57;;;13.67;;
7587;SDS011;3835;48.850;8.938;2023-04-25T07:54:43;14.50;;;13.60;;
7587;SDS011;3835;48.850;8.938;2023-04-25T07:57:11;13.83;;;13.03;;
7587;SDS011;3835;48.850;8.938;2023-04-25T07:59:38;14.63;;;13.83;;
7587;SDS011;3835;48.850;8.938;2023-04-25T08:02:05;14.37;;;13.47;;
7587;SDS011;3835;48.850;8.938;2023-04-25T08:04:32;15.27;;;14.37;;
7587;SDS011;3835;48.850;8.938;2023-04-25T08:06:59;14.10;;;13.30;;
7587;SDS011;3835;48.850;8.938;2023-04-25T08:09:26;16.23;;;15.43;;
7587;SDS011;3835;48.850;8.938;2023-04-25T08:11:54;16.77;;;15.77;;
7587;SDS011;3835;48.850;8.938;2023-04-25T08:14:22;15.87;;;14.87;;
7587;SDS011;3835;48.850;8.938;2023-04-25T08:16:49;16.27;;;15.27;;
7587;SDS011;3835;48.850;8.938;2023-04-25T08:19:15;14.93;;;13.87;;
7587;SDS011;3835;48.850;8.938;2023-04-25T08:21:42;14.87;;;13.87;;
7587;SDS011;3835;48.850;8.938;2023-04-25T08:24:09;15.13;;;14.07;;
7587;SDS011;3835;48.850;8.938;2023-04-25T08:26:36;14.97;;;14.07;;
7587;SDS011;3835;48.850;8.938;2023-04-25T08:29:04;15.03;;;13.93;;
7587;SDS011;3835;48.850;8.938;2023-04-25T08:31:32;13.63;;;12.73;;
7587;SDS011;3835;48.850;8.938;2023-04-25T08:33:59;15.73;;;14.83;;
7587;SDS011;3835;48.850;8.938;2023-04-25T08:36:26;16.20;;;15.10;;
7587;SDS011;3835;48.850;8.938;2023-04-25T08:38:53;17.07;;;15.97;;
7587;SDS011;3835;48.850;8.938;2023-04-25T08:41:20;16.13;;;15.13;;
7587;SDS011;3835;48.850;8.938;2023-04-25T08:43:48;758.10;;;419.47;;
7587;SDS011;3835;48.850;8.938;2023-04-25T08:46:17;1999.90;;;999.90;;
7587;SDS011;3835;48.850;8.938;2023-04-25T08:48:46;1999.90;;;999.90;;
7587;SDS011;3835;48.850;8.938;2023-04-25T08:51:15;1999.90;;;999.90;;
7587;SDS011;3835;48.850;8.938;2023-04-25T08:53:47;1999.90;;;999.90;;
7587;SDS011;3835;48.850;8.938;2023-04-25T08:56:17;1999.90;;;999.90;;
7587;SDS011;3835;48.850;8.938;2023-04-25T09:01:14;1999.90;;;999.90;;
7587;SDS011;3835;48.850;8.938;2023-04-25T09:03:41;1999.90;;;999.90;;
7587;SDS011;3835;48.850;8.938;2023-04-25T09:06:10;1999.90;;;999.90;;
7587;SDS011;3835;48.850;8.938;2023-04-25T09:08:37;17.10;;;16.00;;
7587;SDS011;3835;48.850;8.938;2023-04-25T09:11:05;14.53;;;13.43;;
7587;SDS011;3835;48.850;8.938;2023-04-25T09:13:32;14.00;;;13.10;;
7587;SDS011;3835;48.850;8.938;2023-04-25T09:15:59;14.50;;;13.30;;
7587;SDS011;3835;48.850;8.938;2023-04-25T09:18:27;13.13;;;12.27;;
7587;SDS011;3835;48.850;8.938;2023-04-25T09:20:54;13.03;;;12.33;;
7587;SDS011;3835;48.850;8.938;2023-04-25T09:23:23;12.93;;;12.13;;
7587;SDS011;3835;48.850;8.938;2023-04-25T09:25:51;12.47;;;11.77;;
7587;SDS011;3835;48.850;8.938;2023-04-25T09:28:22;12.83;;;12.03;;
7587;SDS011;3835;48.850;8.938;2023-04-25T09:30:54;11.80;;;11.00;;
7587;SDS011;3835;48.850;8.938;2023-04-25T09:33:26;11.80;;;11.10;;
7587;SDS011;3835;48.850;8.938;2023-04-25T09:36:01;13.63;;;12.83;;
7587;SDS011;3835;48.850;8.938;2023-04-25T09:38:31;12.53;;;11.93;;
7587;SDS011;3835;48.850;8.938;2023-04-25T09:41:05;12.17;;;11.57;;
7587;SDS011;3835;48.850;8.938;2023-04-25T09:43:32;11.87;;;11.30;;
7587;SDS011;3835;48.850;8.938;2023-04-25T09:45:58;11.03;;;10.50;;
7587;SDS011;3835;48.850;8.938;2023-04-25T09:48:26;12.33;;;11.73;;
7587;SDS011;3835;48.850;8.938;2023-04-25T09:51:03;10.93;;;10.37;;
7587;SDS011;3835;48.850;8.938;2023-04-25T09:53:32;11.90;;;11.30;;
7587;SDS011;3835;48.850;8.938;2023-04-25T09:56:00;12.03;;;11.43;;
7587;SDS011;3835;48.850;8.938;2023-04-25T09:58:31;11.73;;;11.23;;
7587;SDS011;3835;48.850;8.938;2023-04-25T10:00:59;11.77;;;11.27;;
7587;SDS011;3835;48.850;8.938;2023-04-25T10:03:29;12.27;;;11.67;;
7587;SDS011;3835;48.850;8.938;2023-04-25T10:05:56;10.87;;;10.37;;
7587;SDS011;3835;48.850;8.938;2023-04-25T10:08:25;11.90;;;11.30;;
7587;SDS011;3835;48.850;8.938;2023-04-25T10:10:58;11.70;;;11.10;;
7587;SDS011;3835;48.850;8.938;2023-04-25T10:13:26;11.70;;;11.10;;
7587;SDS011;3835;48.850;8.938;2023-04-25T10:15:54;11.93;;;11.33;;
7587;SDS011;3835;48.850;8.938;2023-04-25T10:18:24;11.93;;;11.37;;
7587;SDS011;3835;48.850;8.938;2023-04-25T10:20:51;13.47;;;12.87;;
7587;SDS011;3835;48.850;8.938;2023-04-25T10:23:19;13.27;;;12.50;;
7587;SDS011;3835;48.850;8.938;2023-04-25T10:25:46;16.17;;;15.13;;
7587;SDS011;3835;48.850;8.938;2023-04-25T10:28:16;15.97;;;14.93;;
7587;SDS011;3835;48.850;8.938;2023-04-25T10:30:56;15.07;;;14.07;;
7587;SDS011;3835;48.850;8.938;2023-04-25T10:33:29;13.87;;;12.97;;
7587;SDS011;3835;48.850;8.938;2023-04-25T10:35:58;14.60;;;13.60;;
7587;SDS011;3835;48.850;8.938;2023-04-25T10:38:34;14.47;;;13.43;;
7587;SDS011;3835;48.850;8.938;2023-04-25T10:41:05;14.60;;;13.30;;
7587;SDS011;3835;48.850;8.938;2023-04-25T10:43:36;13.63;;;12.73;;
7587;SDS011;3835;48.850;8.938;2023-04-25T10:46:16;13.97;;;13.07;;
7587;SDS011;3835;48.850;8.938;2023-04-25T10:48:47;13.93;;;12.77;;
7587;SDS011;3835;48.850;8.938;2023-04-25T10:51:16;12.80;;;12.00;;
7587;SDS011;3835;48.850;8.938;2023-04-25T10:53:56;12.87;;;12.17;;
7587;SDS011;3835;48.850;8.938;2023-04-25T10:56:25;12.77;;;12.00;;
7587;SDS011;3835;48.850;8.938;2023-04-25T10:58:54;13.47;;;12.77;;
7587;SDS011;3835;48.850;8.938;2023-04-25T11:01:35;13.13;;;12.43;;
7587;SDS011;3835;48.850;8.938;2023-04-25T11:04:02;12.40;;;11.70;;
7587;SDS011;3835;48.850;8.938;2023-04-25T11:06:31;12.93;;;12.13;;
7587;SDS011;3835;48.850;8.938;2023-04-25T11:09:08;12.43;;;11.77;;
7587;SDS011;3835;48.850;8.938;2023-04-25T11:11:38;12.77;;;12.07;;
7587;SDS011;3835;48.850;8.938;2023-04-25T11:14:06;12.20;;;11.60;;
7587;SDS011;3835;48.850;8.938;2023-04-25T11:16:33;11.53;;;10.93;;
7587;SDS011;3835;48.850;8.938;2023-04-25T11:19:01;12.27;;;11.67;;
7587;SDS011;3835;48.850;8.938;2023-04-25T11:21:29;11.83;;;11.13;;
7587;SDS011;3835;48.850;8.938;2023-04-25T11:23:56;12.33;;;11.67;;
7587;SDS011;3835;48.850;8.938;2023-04-25T11:26:24;11.87;;;11.27;;
7587;SDS011;3835;48.850;8.938;2023-04-25T11:28:51;13.33;;;12.60;;
7587;SDS011;3835;48.850;8.938;2023-04-25T11:31:24;12.57;;;11.87;;
7587;SDS011;3835;48.850;8.938;2023-04-25T11:33:52;13.50;;;12.80;;
7587;SDS011;3835;48.850;8.938;2023-04-25T11:36:19;12.73;;;11.93;;
7587;SDS011;3835;48.850;8.938;2023-04-25T11:38:46;13.50;;;12.60;;
7587;SDS011;3835;48.850;8.938;2023-04-25T11:41:13;14.80;;;13.80;;
7587;SDS011;3835;48.850;8.938;2023-04-25T11:43:40;14.33;;;13.40;;
7587;SDS011;3835;48.850;8.938;2023-04-25T11:46:08;13.13;;;12.43;;
7587;SDS011;3835;48.850;8.938;2023-04-25T11:48:38;13.93;;;13.03;;
7587;SDS011;3835;48.850;8.938;2023-04-25T11:51:05;14.40;;;13.30;;
7587;SDS011;3835;48.850;8.938;2023-04-25T11:53:32;14.27;;;13.27;;
7587;SDS011;3835;48.850;8.938;2023-04-25T11:55:59;14.60;;;13.57;;
7587;SDS011;3835;48.850;8.938;2023-04-25T11:58:26;14.63;;;13.53;;
7587;SDS011;3835;48.850;8.938;2023-04-25T12:00:53;14.60;;;13.57;;
7587;SDS011;3835;48.850;8.938;2023-04-25T12:03:23;16.67;;;15.50;;
7587;SDS011;3835;48.850;8.938;2023-04-25T12:05:53;15.03;;;13.83;;
7587;SDS011;3835;48.850;8.938;2023-04-25T12:08:29;14.07;;;13.13;;
7587;SDS011;3835;48.850;8.938;2023-04-25T12:10:56;14.67;;;13.53;;
7587;SDS011;3835;48.850;8.938;2023-04-25T12:13:23;13.57;;;12.53;;
7587;SDS011;3835;48.850;8.938;2023-04-25T12:15:51;13.80;;;12.83;;
7587;SDS011;3835;48.850;8.938;2023-04-25T12:18:20;14.47;;;13.37;;
7587;SDS011;3835;48.850;8.938;2023-04-25T12:20:49;15.50;;;14.47;;
7587;SDS011;3835;48.850;8.938;2023-04-25T12:23:17;13.50;;;12.47;;
7587;SDS011;3835;48.850;8.938;2023-04-25T12:25:52;14.50;;;13.47;;
7587;SDS011;3835;48.850;8.938;2023-04-25T12:28:19;15.03;;;14.03;;
7587;SDS011;3835;48.850;8.938;2023-04-25T12:30:55;14.40;;;13.47;;
7587;SDS011;3835;48.850;8.938;2023-04-25T12:33:23;14.93;;;13.83;;
7587;SDS011;3835;48.850;8.938;2023-04-25T12:35:51;14.70;;;13.73;;
7587;SDS011;3835;48.850;8.938;2023-04-25T12:38:23;15.53;;;14.40;;
7587;SDS011;3835;48.850;8.938;2023-04-25T12:40:51;14.43;;;13.33;;
7587;SDS011;3835;48.850;8.938;2023-04-25T12:43:19;16.83;;;15.63;;
7587;SDS011;3835;48.850;8.938;2023-04-25T12:45:47;15.70;;;14.70;;
7587;SDS011;3835;48.850;8.938;2023-04-25T12:48:15;16.40;;;15.20;;
7587;SDS011;3835;48.850;8.938;2023-04-25T12:50:42;17.47;;;16.17;;
7587;SDS011;3835;48.850;8.938;2023-04-25T12:53:08;18.83;;;17.53;;
7587;SDS011;3835;48.850;8.938;2023-04-25T12:55:37;17.63;;;16.43;;
7587;SDS011;3835;48.850;8.938;2023-04-25T12:58:03;19.30;;;18.00;;
7587;SDS011;3835;48.850;8.938;2023-04-25T13:00:30;16.77;;;15.47;;
7587;SDS011;3835;48.850;8.938;2023-04-25T13:02:57;16.47;;;15.17;;
7587;SDS011;3835;48.850;8.938;2023-04-25T13:05:24;18.77;;;17.37;;
7587;SDS011;3835;48.850;8.938;2023-04-25T13:07:51;16.23;;;14.73;;
7587;SDS011;3835;48.850;8.938;2023-04-25T13:10:18;17.57;;;16.37;;
7587;SDS011;3835;48.850;8.938;2023-04-25T13:12:46;15.23;;;14.03;;
7587;SDS011;3835;48.850;8.938;2023-04-25T13:15:13;16.53;;;15.13;;
7587;SDS011;3835;48.850;8.938;2023-04-25T13:17:40;15.67;;;14.50;;
7587;SDS011;3835;48.850;8.938;2023-04-25T13:20:08;14.70;;;13.60;;
7587;SDS011;3835;48.850;8.938;2023-04-25T13:22:36;17.30;;;16.10;;
7587;SDS011;3835;48.850;8.938;2023-04-25T13:25:04;15.03;;;14.03;;
7587;SDS011;3835;48.850;8.938;2023-04-25T13:27:32;16.70;;;15.50;;
7587;SDS011;3835;48.850;8.938;2023-04-25T13:30:00;16.40;;;15.27;;
7587;SDS011;3835;48.850;8.938;2023-04-25T13:32:32;14.27;;;13.37;;
7587;SDS011;3835;48.850;8.938;2023-04-25T13:34:59;14.90;;;14.00;;
7587;SDS011;3835;48.850;8.938;2023-04-25T13:37:25;14.67;;;13.60;;
7587;SDS011;3835;48.850;8.938;2023-04-25T13:39:52;15.77;;;14.60;;
7587;SDS011;3835;48.850;8.938;2023-04-25T13:42:20;17.23;;;16.13;;
7587;SDS011;3835;48.850;8.938;2023-04-25T13:44:47;16.73;;;15.53;;
7587;SDS011;3835;48.850;8.938;2023-04-25T13:47:15;16.40;;;15.40;;
7587;SDS011;3835;48.850;8.938;2023-04-25T13:49:41;15.10;;;14.10;;
7587;SDS011;3835;48.850;8.938;2023-04-25T13:52:08;15.93;;;14.87;;
7587;SDS011;3835;48.850;8.938;2023-04-25T13:54:35;16.10;;;14.90;;
7587;SDS011;3835;48.850;8.938;2023-04-25T13:57:02;15.23;;;14.00;;
7587;SDS011;3835;48.850;8.938;2023-04-25T13:59:28;17.20;;;15.80;;
7587;SDS011;3835;48.850;8.938;2023-04-25T14:01:55;16.67;;;15.37;;
7587;SDS011;3835;48.850;8.938;2023-04-25T14:04:23;15.77;;;14.87;;
7587;SDS011;3835;48.850;8.938;2023-04-25T14:06:51;15.53;;;14.43;;
7587;SDS011;3835;48.850;8.938;2023-04-25T14:09:18;16.13;;;15.07;;
7587;SDS011;3835;48.850;8.938;2023-04-25T14:11:50;16.10;;;15.10;;
7587;SDS011;3835;48.850;8.938;2023-04-25T14:14:17;14.87;;;13.97;;
7587;SDS011;3835;48.850;8.938;2023-04-25T14:16:44;14.87;;;13.87;;
7587;SDS011;3835;48.850;8.938;2023-04-25T14:19:10;15.43;;;14.50;;
7587;SDS011;3835;48.850;8.938;2023-04-25T14:21:38;15.87;;;14.87;;
7587;SDS011;3835;48.850;8.938;2023-04-25T14:24:05;15.23;;;14.27;;
7587;SDS011;3835;48.850;8.938;2023-04-25T14:26:33;13.70;;;12.97;;
7587;SDS011;3835;48.850;8.938;2023-04-25T14:29:00;15.60;;;14.63;;
7587;SDS011;3835;48.850;8.938;2023-04-25T14:31:27;14.23;;;13.30;;
7587;SDS011;3835;48.850;8.938;2023-04-25T14:33:53;15.67;;;14.57;;
7587;SDS011;3835;48.850;8.938;2023-04-25T14:36:20;15.33;;;14.23;;
7587;SDS011;3835;48.850;8.938;2023-04-25T14:38:48;17.33;;;16.23;;
7587;SDS011;3835;48.850;8.938;2023-04-25T14:41:15;18.60;;;17.40;;
7587;SDS011;3835;48.850;8.938;2023-04-25T14:43:42;18.10;;;16.90;;